This is the latest recevied weather packets stored in our database for station/object N4RCT. If no packets are shown the sender has not sent any weather packets the latest 10 day(s).
| Time | Temp. | Humidity | Pressure | Rain* | Wind** | Luminosity | Snow |
|---|---|---|---|---|---|---|---|
| 1777567863 | 20° C | 68% | 1012.7 hPa | 0 mm | - | 480 W/m² | - |
| 1777567559 | 19.44° C | 67% | 1012.7 hPa | 0 mm | - | 697 W/m² | - |
| 1777567256 | 19.44° C | 70% | 1012.5 hPa | 0 mm | - | 801 W/m² | - |
| 1777566955 | 19.44° C | 69% | 1012.8 hPa | 0 mm | - | 637 W/m² | - |
| 1777566652 | 19.44° C | 70% | 1012.7 hPa | 0 mm | - | 780 W/m² | - |
| 1777566350 | 18.89° C | 73% | 1012.8 hPa | 0 mm | - | 734 W/m² | - |
| 1777566047 | 18.89° C | 74% | 1012.7 hPa | 0 mm | - | 812 W/m² | - |
| 1777565742 | 18.89° C | 70% | 1012.7 hPa | 0 mm | - | 787 W/m² | - |
| 1777565439 | 18.89° C | 70% | 1012.8 hPa | 0 mm | - | 597 W/m² | - |
| 1777565135 | 18.33° C | 75% | 1012.7 hPa | 0 mm | - | 761 W/m² | - |
| 1777564832 | 18.33° C | 77% | 1012.5 hPa | 0 mm | - | 583 W/m² | - |
| 1777564527 | 18.33° C | 75% | 1012.7 hPa | 0 mm | - | 552 W/m² | - |
| 1777564222 | 18.33° C | 73% | 1012.6 hPa | 0 mm | - | 400 W/m² | - |
| 1777563918 | 18.33° C | 73% | 1012.7 hPa | 0 mm | - | 379 W/m² | - |
| 1777563615 | 17.78° C | 78% | 1012.6 hPa | 0 mm | - | 570 W/m² | - |
| 1777563315 | 17.78° C | 73% | 1012.6 hPa | 0 mm | - | 482 W/m² | - |
| 1777563011 | 17.78° C | 74% | 1012.5 hPa | 0 mm | - | 671 W/m² | - |
| 1777562706 | 18.33° C | 73% | 1012.5 hPa | 0 mm | - | 544 W/m² | - |
| 1777562400 | 18.33° C | 74% | 1012.3 hPa | 0 mm | - | 669 W/m² | - |
| 1777562097 | 17.78° C | 75% | 1012.3 hPa | 0 mm | - | 647 W/m² | - |
| 1777561794 | 17.78° C | 79% | 1012.6 hPa | 0 mm | - | 797 W/m² | - |
| 1777561490 | 17.78° C | 82% | 1012.2 hPa | 0 mm | - | 691 W/m² | - |
| 1777561185 | 16.67° C | 79% | 1012.2 hPa | 0 mm | - | 737 W/m² | - |
| 1777560880 | 17.22° C | 79% | 1012.2 hPa | 0 mm | - | 308 W/m² | - |
| 1777560578 | 16.67° C | 82% | 1012.1 hPa | 0 mm | - | 476 W/m² | - |
* Rain latest hour (hover to see other rain measurements)
** Current wind speed in m/s (hover to see current wind gust speed)